sensor_id;sensor_type;location;lat;lon;timestamp;P1;durP1;ratioP1;P2;durP2;ratioP2
30898;SDS011;17914;52.484;13.424;2022-09-30T17:07:20;8.65;;;3.97;;
30898;SDS011;17914;52.484;13.424;2022-09-30T17:09:48;9.45;;;4.13;;
30898;SDS011;17914;52.484;13.424;2022-09-30T17:12:18;8.25;;;4.55;;
30898;SDS011;17914;52.484;13.424;2022-09-30T17:14:45;9.32;;;4.53;;
30898;SDS011;17914;52.484;13.424;2022-09-30T17:17:14;7.45;;;4.68;;
30898;SDS011;17914;52.484;13.424;2022-09-30T17:19:42;11.32;;;5.28;;
30898;SDS011;17914;52.484;13.424;2022-09-30T17:22:09;14.75;;;5.03;;
30898;SDS011;17914;52.484;13.424;2022-09-30T17:24:39;14.43;;;5.55;;
30898;SDS011;17914;52.484;13.424;2022-09-30T17:27:06;13.63;;;6.97;;
30898;SDS011;17914;52.484;13.424;2022-09-30T17:29:34;13.13;;;6.55;;
30898;SDS011;17914;52.484;13.424;2022-09-30T17:32:07;13.27;;;6.95;;
30898;SDS011;17914;52.484;13.424;2022-09-30T17:34:35;11.00;;;4.97;;
30898;SDS011;17914;52.484;13.424;2022-09-30T17:37:03;9.07;;;6.57;;
30898;SDS011;17914;52.484;13.424;2022-09-30T17:39:36;9.68;;;5.30;;
30898;SDS011;17914;52.484;13.424;2022-09-30T17:42:05;11.98;;;6.57;;
30898;SDS011;17914;52.484;13.424;2022-09-30T17:44:55;10.93;;;6.00;;
30898;SDS011;17914;52.484;13.424;2022-09-30T17:47:23;9.15;;;5.60;;
30898;SDS011;17914;52.484;13.424;2022-09-30T17:49:52;11.52;;;6.35;;
30898;SDS011;17914;52.484;13.424;2022-09-30T17:52:20;12.52;;;6.13;;
30898;SDS011;17914;52.484;13.424;2022-09-30T17:54:48;9.65;;;6.05;;
30898;SDS011;17914;52.484;13.424;2022-09-30T17:57:19;14.00;;;7.22;;
30898;SDS011;17914;52.484;13.424;2022-09-30T17:59:47;11.32;;;6.78;;
30898;SDS011;17914;52.484;13.424;2022-09-30T18:02:15;11.60;;;6.68;;
30898;SDS011;17914;52.484;13.424;2022-09-30T18:04:43;13.73;;;7.18;;
30898;SDS011;17914;52.484;13.424;2022-09-30T18:07:11;11.85;;;6.68;;
30898;SDS011;17914;52.484;13.424;2022-09-30T18:09:39;13.65;;;8.52;;
30898;SDS011;17914;52.484;13.424;2022-09-30T18:12:07;12.07;;;7.85;;
30898;SDS011;17914;52.484;13.424;2022-09-30T18:14:36;10.80;;;6.40;;
30898;SDS011;17914;52.484;13.424;2022-09-30T18:17:04;11.82;;;7.57;;
30898;SDS011;17914;52.484;13.424;2022-09-30T18:19:32;12.80;;;6.80;;
30898;SDS011;17914;52.484;13.424;2022-09-30T18:22:01;12.13;;;8.25;;
30898;SDS011;17914;52.484;13.424;2022-09-30T18:24:29;15.70;;;7.68;;
30898;SDS011;17914;52.484;13.424;2022-09-30T18:27:26;15.23;;;7.70;;
30898;SDS011;17914;52.484;13.424;2022-09-30T18:30:00;17.35;;;8.82;;
30898;SDS011;17914;52.484;13.424;2022-09-30T18:32:29;11.02;;;6.88;;
30898;SDS011;17914;52.484;13.424;2022-09-30T18:34:57;11.93;;;8.02;;
30898;SDS011;17914;52.484;13.424;2022-09-30T18:37:27;12.27;;;7.47;;
30898;SDS011;17914;52.484;13.424;2022-09-30T18:39:58;15.45;;;8.45;;
30898;SDS011;17914;52.484;13.424;2022-09-30T18:42:26;17.25;;;9.10;;
30898;SDS011;17914;52.484;13.424;2022-09-30T18:44:55;15.40;;;7.72;;
30898;SDS011;17914;52.484;13.424;2022-09-30T18:47:24;14.30;;;9.15;;
30898;SDS011;17914;52.484;13.424;2022-09-30T18:49:52;9.63;;;7.13;;
30898;SDS011;17914;52.484;13.424;2022-09-30T18:52:20;13.93;;;10.50;;
30898;SDS011;17914;52.484;13.424;2022-09-30T18:54:48;22.35;;;10.02;;
30898;SDS011;17914;52.484;13.424;2022-09-30T18:57:16;15.10;;;10.40;;
30898;SDS011;17914;52.484;13.424;2022-09-30T18:59:44;13.75;;;9.05;;
30898;SDS011;17914;52.484;13.424;2022-09-30T19:02:13;13.48;;;8.77;;
30898;SDS011;17914;52.484;13.424;2022-09-30T19:04:47;19.33;;;9.18;;
30898;SDS011;17914;52.484;13.424;2022-09-30T19:07:17;14.30;;;8.50;;
30898;SDS011;17914;52.484;13.424;2022-09-30T19:09:45;14.30;;;8.75;;
30898;SDS011;17914;52.484;13.424;2022-09-30T19:12:13;13.07;;;9.00;;
30898;SDS011;17914;52.484;13.424;2022-09-30T19:14:42;14.65;;;8.35;;
30898;SDS011;17914;52.484;13.424;2022-09-30T19:17:10;19.50;;;9.82;;
30898;SDS011;17914;52.484;13.424;2022-09-30T19:19:38;18.17;;;9.98;;
30898;SDS011;17914;52.484;13.424;2022-09-30T19:22:11;17.15;;;9.80;;
30898;SDS011;17914;52.484;13.424;2022-09-30T19:24:39;17.48;;;9.77;;
30898;SDS011;17914;52.484;13.424;2022-09-30T19:27:08;18.10;;;10.48;;
30898;SDS011;17914;52.484;13.424;2022-09-30T19:29:37;17.83;;;8.68;;
30898;SDS011;17914;52.484;13.424;2022-09-30T19:32:05;12.65;;;8.30;;
30898;SDS011;17914;52.484;13.424;2022-09-30T19:34:34;12.00;;;8.18;;
30898;SDS011;17914;52.484;13.424;2022-09-30T19:37:02;12.70;;;7.93;;
30898;SDS011;17914;52.484;13.424;2022-09-30T19:39:33;15.95;;;8.85;;
30898;SDS011;17914;52.484;13.424;2022-09-30T19:42:11;14.63;;;8.23;;
30898;SDS011;17914;52.484;13.424;2022-09-30T19:44:42;13.88;;;8.02;;
30898;SDS011;17914;52.484;13.424;2022-09-30T19:47:09;13.35;;;8.45;;
30898;SDS011;17914;52.484;13.424;2022-09-30T19:49:38;14.63;;;9.18;;
30898;SDS011;17914;52.484;13.424;2022-09-30T19:52:06;15.20;;;8.63;;
30898;SDS011;17914;52.484;13.424;2022-09-30T19:54:47;17.20;;;8.43;;
30898;SDS011;17914;52.484;13.424;2022-09-30T19:57:16;13.50;;;8.80;;
30898;SDS011;17914;52.484;13.424;2022-09-30T19:59:44;13.15;;;8.38;;
30898;SDS011;17914;52.484;13.424;2022-09-30T20:02:12;21.02;;;9.55;;
30898;SDS011;17914;52.484;13.424;2022-09-30T20:04:40;18.20;;;9.35;;
30898;SDS011;17914;52.484;13.424;2022-09-30T20:07:10;14.70;;;8.45;;
30898;SDS011;17914;52.484;13.424;2022-09-30T20:09:40;18.23;;;10.10;;
30898;SDS011;17914;52.484;13.424;2022-09-30T20:12:09;11.48;;;7.50;;
30898;SDS011;17914;52.484;13.424;2022-09-30T20:14:37;12.52;;;7.32;;
30898;SDS011;17914;52.484;13.424;2022-09-30T20:17:23;12.38;;;8.60;;
30898;SDS011;17914;52.484;13.424;2022-09-30T20:19:51;11.82;;;8.15;;
30898;SDS011;17914;52.484;13.424;2022-09-30T20:22:36;13.80;;;7.75;;
30898;SDS011;17914;52.484;13.424;2022-09-30T20:25:04;11.15;;;8.80;;
30898;SDS011;17914;52.484;13.424;2022-09-30T20:27:34;13.13;;;8.25;;
30898;SDS011;17914;52.484;13.424;2022-09-30T20:30:02;13.57;;;9.07;;
30898;SDS011;17914;52.484;13.424;2022-09-30T20:32:31;16.80;;;9.43;;
30898;SDS011;17914;52.484;13.424;2022-09-30T20:34:58;13.68;;;8.90;;
30898;SDS011;17914;52.484;13.424;2022-09-30T20:37:26;16.67;;;10.05;;
30898;SDS011;17914;52.484;13.424;2022-09-30T20:39:55;14.77;;;8.95;;
30898;SDS011;17914;52.484;13.424;2022-09-30T20:42:22;15.82;;;9.93;;
30898;SDS011;17914;52.484;13.424;2022-09-30T20:44:54;16.58;;;9.35;;
30898;SDS011;17914;52.484;13.424;2022-09-30T20:47:28;13.90;;;8.45;;
30898;SDS011;17914;52.484;13.424;2022-09-30T20:49:56;15.05;;;9.30;;
30898;SDS011;17914;52.484;13.424;2022-09-30T20:52:24;14.07;;;8.65;;
30898;SDS011;17914;52.484;13.424;2022-09-30T20:54:52;16.00;;;9.85;;
30898;SDS011;17914;52.484;13.424;2022-09-30T20:57:21;13.95;;;9.85;;
30898;SDS011;17914;52.484;13.424;2022-09-30T20:59:48;16.63;;;10.38;;
30898;SDS011;17914;52.484;13.424;2022-09-30T21:02:18;15.27;;;9.05;;
30898;SDS011;17914;52.484;13.424;2022-09-30T21:04:53;17.75;;;9.82;;
30898;SDS011;17914;52.484;13.424;2022-09-30T21:07:22;13.60;;;8.90;;
30898;SDS011;17914;52.484;13.424;2022-09-30T21:09:51;16.25;;;9.30;;
30898;SDS011;17914;52.484;13.424;2022-09-30T21:12:19;16.58;;;8.95;;
30898;SDS011;17914;52.484;13.424;2022-09-30T21:14:47;13.48;;;8.98;;
30898;SDS011;17914;52.484;13.424;2022-09-30T21:17:14;14.68;;;9.20;;
30898;SDS011;17914;52.484;13.424;2022-09-30T21:19:44;11.90;;;9.02;;
30898;SDS011;17914;52.484;13.424;2022-09-30T21:22:11;14.38;;;9.82;;
30898;SDS011;17914;52.484;13.424;2022-09-30T21:24:39;12.52;;;8.77;;
30898;SDS011;17914;52.484;13.424;2022-09-30T21:27:07;12.70;;;8.85;;
30898;SDS011;17914;52.484;13.424;2022-09-30T21:29:35;12.57;;;9.43;;
30898;SDS011;17914;52.484;13.424;2022-09-30T21:32:03;16.90;;;9.63;;
30898;SDS011;17914;52.484;13.424;2022-09-30T21:34:31;13.70;;;9.10;;
30898;SDS011;17914;52.484;13.424;2022-09-30T21:37:00;15.10;;;9.48;;
30898;SDS011;17914;52.484;13.424;2022-09-30T21:39:28;14.15;;;9.05;;
30898;SDS011;17914;52.484;13.424;2022-09-30T21:41:56;13.05;;;8.70;;
30898;SDS011;17914;52.484;13.424;2022-09-30T21:44:24;15.35;;;9.70;;
30898;SDS011;17914;52.484;13.424;2022-09-30T21:46:52;13.35;;;9.20;;
30898;SDS011;17914;52.484;13.424;2022-09-30T21:49:20;12.65;;;9.10;;
30898;SDS011;17914;52.484;13.424;2022-09-30T21:51:49;13.10;;;9.43;;
30898;SDS011;17914;52.484;13.424;2022-09-30T21:54:19;14.25;;;9.73;;
30898;SDS011;17914;52.484;13.424;2022-09-30T21:56:48;13.90;;;9.15;;
30898;SDS011;17914;52.484;13.424;2022-09-30T21:59:16;14.32;;;9.38;;
30898;SDS011;17914;52.484;13.424;2022-09-30T22:01:44;13.55;;;8.35;;
30898;SDS011;17914;52.484;13.424;2022-09-30T22:04:12;14.52;;;9.38;;
30898;SDS011;17914;52.484;13.424;2022-09-30T22:06:40;15.18;;;9.63;;
30898;SDS011;17914;52.484;13.424;2022-09-30T22:09:09;14.23;;;9.18;;
30898;SDS011;17914;52.484;13.424;2022-09-30T22:11:38;11.55;;;8.82;;
30898;SDS011;17914;52.484;13.424;2022-09-30T22:16:36;12.30;;;9.10;;
30898;SDS011;17914;52.484;13.424;2022-09-30T22:19:05;10.75;;;8.40;;
30898;SDS011;17914;52.484;13.424;2022-09-30T22:21:34;12.40;;;8.75;;
30898;SDS011;17914;52.484;13.424;2022-09-30T22:24:03;12.57;;;8.27;;
30898;SDS011;17914;52.484;13.424;2022-09-30T22:26:33;11.30;;;8.57;;
30898;SDS011;17914;52.484;13.424;2022-09-30T22:29:04;11.43;;;8.23;;
30898;SDS011;17914;52.484;13.424;2022-09-30T22:31:35;13.57;;;9.32;;
30898;SDS011;17914;52.484;13.424;2022-09-30T22:34:05;11.68;;;9.30;;
30898;SDS011;17914;52.484;13.424;2022-09-30T22:36:51;13.30;;;8.77;;
30898;SDS011;17914;52.484;13.424;2022-09-30T22:39:36;14.18;;;9.70;;
30898;SDS011;17914;52.484;13.424;2022-09-30T22:42:04;15.02;;;9.38;;
30898;SDS011;17914;52.484;13.424;2022-09-30T22:44:34;12.18;;;8.93;;
30898;SDS011;17914;52.484;13.424;2022-09-30T22:47:03;10.63;;;9.20;;
30898;SDS011;17914;52.484;13.424;2022-09-30T22:49:31;11.20;;;8.35;;
30898;SDS011;17914;52.484;13.424;2022-09-30T22:51:59;12.23;;;8.35;;
30898;SDS011;17914;52.484;13.424;2022-09-30T22:54:28;10.25;;;8.48;;
30898;SDS011;17914;52.484;13.424;2022-09-30T22:56:56;11.93;;;8.10;;
30898;SDS011;17914;52.484;13.424;2022-09-30T22:59:25;12.80;;;8.48;;
30898;SDS011;17914;52.484;13.424;2022-09-30T23:01:55;12.38;;;8.73;;
30898;SDS011;17914;52.484;13.424;2022-09-30T23:04:24;11.48;;;8.65;;
30898;SDS011;17914;52.484;13.424;2022-09-30T23:06:52;12.85;;;9.15;;
30898;SDS011;17914;52.484;13.424;2022-09-30T23:09:21;11.02;;;9.02;;
30898;SDS011;17914;52.484;13.424;2022-09-30T23:11:50;13.15;;;9.23;;
30898;SDS011;17914;52.484;13.424;2022-09-30T23:14:19;10.25;;;8.05;;
30898;SDS011;17914;52.484;13.424;2022-09-30T23:16:48;12.02;;;8.20;;
30898;SDS011;17914;52.484;13.424;2022-09-30T23:19:18;13.25;;;9.57;;
30898;SDS011;17914;52.484;13.424;2022-09-30T23:21:46;14.23;;;8.82;;
30898;SDS011;17914;52.484;13.424;2022-09-30T23:24:13;12.52;;;8.90;;
30898;SDS011;17914;52.484;13.424;2022-09-30T23:26:41;13.85;;;10.32;;
30898;SDS011;17914;52.484;13.424;2022-09-30T23:29:10;12.50;;;9.43;;
30898;SDS011;17914;52.484;13.424;2022-09-30T23:31:38;13.98;;;9.27;;
30898;SDS011;17914;52.484;13.424;2022-09-30T23:34:07;13.50;;;8.60;;
30898;SDS011;17914;52.484;13.424;2022-09-30T23:36:36;11.57;;;9.40;;
30898;SDS011;17914;52.484;13.424;2022-09-30T23:39:05;12.15;;;9.23;;
30898;SDS011;17914;52.484;13.424;2022-09-30T23:41:37;10.18;;;7.78;;
30898;SDS011;17914;52.484;13.424;2022-09-30T23:44:05;12.30;;;8.45;;
30898;SDS011;17914;52.484;13.424;2022-09-30T23:46:35;10.23;;;8.43;;
30898;SDS011;17914;52.484;13.424;2022-09-30T23:49:02;15.52;;;9.98;;
30898;SDS011;17914;52.484;13.424;2022-09-30T23:51:30;13.95;;;10.15;;
30898;SDS011;17914;52.484;13.424;2022-09-30T23:54:01;14.35;;;9.27;;
30898;SDS011;17914;52.484;13.424;2022-09-30T23:56:28;12.40;;;9.43;;
30898;SDS011;17914;52.484;13.424;2022-09-30T23:58:57;13.88;;;9.30;;
